METAR Data
IDs: Format: Raw Decoded Include TAF

Data at: 1308 UTC 24 May 2019

KSET 241254Z AUTO 17004KT 9SM BKN080 24/21 A3005 RMK AO2 SLP171 T02390211 PNO

KSTL 241251Z 21012KT 10SM FEW150 BKN250 24/20 A3007 RMK AO2 SLP170 T02440200